createdAt,value
2022-10-27T00:04:41.124Z,100
2022-10-27T00:14:41.642Z,100
2022-10-27T00:24:41.770Z,100
2022-10-27T00:34:42.170Z,100
2022-10-27T00:44:42.364Z,100
2022-10-27T00:54:42.915Z,100
2022-10-27T01:04:43.587Z,100
2022-10-27T01:14:44.610Z,100
2022-10-27T01:24:44.872Z,100
2022-10-27T01:34:45.537Z,100
2022-10-27T01:44:46.034Z,100
2022-10-27T01:54:46.509Z,100
2022-10-27T02:04:47.538Z,100
2022-10-27T02:14:48.166Z,100
2022-10-27T02:24:48.401Z,100
2022-10-27T02:34:48.766Z,100
2022-10-27T02:54:50.390Z,100
2022-10-27T03:04:51.246Z,100
2022-10-27T03:14:52.382Z,100
2022-10-27T03:24:53.041Z,100
2022-10-27T03:34:53.189Z,100
2022-10-27T03:44:54.229Z,100
2022-10-27T03:54:55.011Z,100
2022-10-27T04:04:55.525Z,100
2022-10-27T04:14:55.693Z,100
2022-10-27T04:24:56.077Z,100
2022-10-27T04:34:56.604Z,100
2022-10-27T04:44:56.904Z,100
2022-10-27T04:54:57.339Z,100
2022-10-27T05:04:57.485Z,100
2022-10-27T05:14:58.315Z,100
2022-10-27T05:34:59.510Z,100
2022-10-27T05:45:00.620Z,100
2022-10-27T05:55:01.189Z,100
2022-10-27T06:05:01.831Z,100
2022-10-27T06:15:02.223Z,100
2022-10-27T06:25:02.567Z,100
2022-10-27T06:35:03.453Z,100
2022-10-27T06:45:04.136Z,100
2022-10-27T06:55:04.324Z,100
2022-10-27T07:05:05.122Z,100
2022-10-27T07:15:05.891Z,100
2022-10-27T07:25:06.288Z,100
2022-10-27T07:35:06.745Z,100
2022-10-27T07:45:07.074Z,100
2022-10-27T07:55:07.709Z,100
2022-10-27T08:05:08.166Z,100
2022-10-27T08:25:10.026Z,100
2022-10-27T08:35:09.818Z,100
2022-10-27T08:45:09.986Z,100
2022-10-27T08:55:10.249Z,100
2022-10-27T09:05:12.586Z,100
2022-10-27T09:25:12.489Z,98
2022-10-27T09:35:14.365Z,97
2022-10-27T09:45:13.690Z,93
2022-10-27T09:55:13.992Z,91
2022-10-27T10:05:14.106Z,88
2022-10-27T10:15:14.459Z,79
2022-10-27T10:25:15.274Z,74
2022-10-27T10:35:15.571Z,70
2022-10-27T10:45:16.087Z,67
2022-10-27T10:55:16.766Z,65
2022-10-27T11:05:17.807Z,64
2022-10-27T11:15:18.201Z,64
2022-10-27T11:25:18.690Z,64
2022-10-27T11:35:19.826Z,64
2022-10-27T11:45:20.618Z,64
2022-10-27T11:55:20.795Z,64
2022-10-27T12:05:21.063Z,63
2022-10-27T12:25:22.264Z,62
2022-10-27T12:35:23.177Z,62
2022-10-27T12:45:24.059Z,61
2022-10-27T12:55:24.791Z,61
2022-10-27T13:05:25.376Z,62
2022-10-27T13:35:26.456Z,65
2022-10-27T13:45:27.119Z,66
2022-10-27T14:15:29.082Z,66
2022-10-27T14:25:29.232Z,67
2022-10-27T14:45:29.857Z,68
2022-10-27T15:25:32.019Z,72
2022-10-27T15:35:32.479Z,73
2022-10-27T15:45:33.010Z,73
2022-10-27T15:55:33.918Z,74
2022-10-27T16:05:34.269Z,75
2022-10-27T16:15:34.812Z,75
2022-10-27T16:25:35.811Z,75
2022-10-27T16:35:36.200Z,76
2022-10-27T16:45:37.099Z,77
2022-10-27T16:55:37.474Z,77
2022-10-27T17:05:38.132Z,78
2022-10-27T17:15:38.392Z,79
2022-10-27T17:25:38.890Z,79
2022-10-27T17:35:39.550Z,79
2022-10-27T17:45:40.408Z,80
2022-10-27T17:55:41.279Z,80
2022-10-27T18:05:41.886Z,80
2022-10-27T18:15:42.372Z,80
2022-10-27T18:25:43.060Z,80
2022-10-27T18:35:43.159Z,81
2022-10-27T18:45:43.975Z,81
2022-10-27T18:55:44.552Z,81
2022-10-27T19:15:45.621Z,82
2022-10-27T19:25:48.707Z,82
2022-10-27T19:35:46.441Z,83
2022-10-27T19:45:46.545Z,84
2022-10-27T19:55:46.863Z,84
2022-10-27T20:05:47.723Z,84
2022-10-27T20:15:47.798Z,85
2022-10-27T20:25:48.735Z,86
2022-10-27T20:35:48.742Z,86
2022-10-27T20:45:49.179Z,87
2022-10-27T20:55:50.079Z,88
2022-10-27T21:05:50.373Z,89
2022-10-27T21:15:50.974Z,90
2022-10-27T21:25:51.738Z,90
2022-10-27T21:35:52.391Z,91
2022-10-27T21:45:52.967Z,92
2022-10-27T22:15:55.050Z,94
2022-10-27T22:25:55.226Z,94
2022-10-27T22:35:56.213Z,95
2022-10-27T22:45:56.399Z,94
2022-10-27T22:55:56.762Z,94
2022-10-27T22:56:18.716Z,94
2022-10-27T23:06:02.722Z,94
2022-10-27T23:16:03.338Z,94
2022-10-27T23:26:04.276Z,94
2022-10-27T23:36:04.924Z,95
2022-10-27T23:46:05.284Z,95
2022-10-27T23:56:06.056Z,96
